sensor_id;sensor_type;location;lat;lon;timestamp;temperature;humidity
27314;DHT22;14800;48.174;9.798;2023-02-03T00:00:15;6.70;80.30
27314;DHT22;14800;48.174;9.798;2023-02-03T00:02:41;6.70;80.40
27314;DHT22;14800;48.174;9.798;2023-02-03T00:05:07;6.70;80.40
27314;DHT22;14800;48.174;9.798;2023-02-03T00:07:33;6.70;80.50
27314;DHT22;14800;48.174;9.798;2023-02-03T00:10:00;6.70;80.30
27314;DHT22;14800;48.174;9.798;2023-02-03T00:12:26;6.70;80.30
27314;DHT22;14800;48.174;9.798;2023-02-03T00:14:51;6.70;80.50
27314;DHT22;14800;48.174;9.798;2023-02-03T00:17:17;6.60;81.20
27314;DHT22;14800;48.174;9.798;2023-02-03T00:19:42;6.60;80.40
27314;DHT22;14800;48.174;9.798;2023-02-03T00:22:08;6.70;80.50
27314;DHT22;14800;48.174;9.798;2023-02-03T00:24:34;6.60;80.40
27314;DHT22;14800;48.174;9.798;2023-02-03T00:26:59;6.60;80.40
27314;DHT22;14800;48.174;9.798;2023-02-03T00:29:25;6.60;80.40
27314;DHT22;14800;48.174;9.798;2023-02-03T00:31:51;6.60;80.40
27314;DHT22;14800;48.174;9.798;2023-02-03T00:34:18;6.60;80.50
27314;DHT22;14800;48.174;9.798;2023-02-03T00:36:44;6.60;80.50
27314;DHT22;14800;48.174;9.798;2023-02-03T00:39:13;6.60;80.80
27314;DHT22;14800;48.174;9.798;2023-02-03T00:41:38;6.50;80.60
27314;DHT22;14800;48.174;9.798;2023-02-03T00:44:04;6.60;80.70
27314;DHT22;14800;48.174;9.798;2023-02-03T00:46:30;6.50;80.70
27314;DHT22;14800;48.174;9.798;2023-02-03T00:48:55;6.50;80.70
27314;DHT22;14800;48.174;9.798;2023-02-03T00:51:21;6.50;80.70
27314;DHT22;14800;48.174;9.798;2023-02-03T00:53:47;6.50;80.70
27314;DHT22;14800;48.174;9.798;2023-02-03T00:56:13;6.50;80.80
27314;DHT22;14800;48.174;9.798;2023-02-03T00:58:39;6.50;80.70
27314;DHT22;14800;48.174;9.798;2023-02-03T01:01:05;6.50;80.90
27314;DHT22;14800;48.174;9.798;2023-02-03T01:03:31;6.50;80.90
27314;DHT22;14800;48.174;9.798;2023-02-03T01:08:38;6.40;81.00
27314;DHT22;14800;48.174;9.798;2023-02-03T01:11:08;6.50;81.10
27314;DHT22;14800;48.174;9.798;2023-02-03T01:13:34;6.40;81.00
27314;DHT22;14800;48.174;9.798;2023-02-03T01:16:00;6.40;81.10
27314;DHT22;14800;48.174;9.798;2023-02-03T01:18:26;6.40;81.10
27314;DHT22;14800;48.174;9.798;2023-02-03T01:20:51;6.40;81.10
27314;DHT22;14800;48.174;9.798;2023-02-03T01:23:17;6.40;81.20
27314;DHT22;14800;48.174;9.798;2023-02-03T01:25:42;6.40;81.20
27314;DHT22;14800;48.174;9.798;2023-02-03T01:28:08;6.40;81.20
27314;DHT22;14800;48.174;9.798;2023-02-03T01:30:34;6.40;81.30
27314;DHT22;14800;48.174;9.798;2023-02-03T01:32:59;6.40;81.30
27314;DHT22;14800;48.174;9.798;2023-02-03T01:35:25;6.40;81.40
27314;DHT22;14800;48.174;9.798;2023-02-03T01:37:51;6.40;81.30
27314;DHT22;14800;48.174;9.798;2023-02-03T01:40:17;6.40;81.30
27314;DHT22;14800;48.174;9.798;2023-02-03T01:42:43;6.40;81.40
27314;DHT22;14800;48.174;9.798;2023-02-03T01:45:09;6.40;81.40
27314;DHT22;14800;48.174;9.798;2023-02-03T01:47:43;6.50;81.40
27314;DHT22;14800;48.174;9.798;2023-02-03T01:50:18;6.40;81.40
27314;DHT22;14800;48.174;9.798;2023-02-03T01:52:49;6.40;81.30
27314;DHT22;14800;48.174;9.798;2023-02-03T01:55:19;6.50;81.30
27314;DHT22;14800;48.174;9.798;2023-02-03T01:57:51;6.50;81.30
27314;DHT22;14800;48.174;9.798;2023-02-03T02:00:18;6.50;81.20
27314;DHT22;14800;48.174;9.798;2023-02-03T02:02:45;6.50;81.10
27314;DHT22;14800;48.174;9.798;2023-02-03T02:08:02;6.50;81.10
27314;DHT22;14800;48.174;9.798;2023-02-03T02:10:29;6.50;81.10
27314;DHT22;14800;48.174;9.798;2023-02-03T02:12:56;6.50;81.10
27314;DHT22;14800;48.174;9.798;2023-02-03T02:15:35;6.40;81.10
27314;DHT22;14800;48.174;9.798;2023-02-03T02:18:33;6.50;81.20
27314;DHT22;14800;48.174;9.798;2023-02-03T02:27:47;6.50;81.10
27314;DHT22;14800;48.174;9.798;2023-02-03T02:33:49;6.50;81.00
27314;DHT22;14800;48.174;9.798;2023-02-03T02:36:15;6.50;81.00
27314;DHT22;14800;48.174;9.798;2023-02-03T02:41:39;6.50;80.80
27314;DHT22;14800;48.174;9.798;2023-02-03T02:44:20;6.50;80.70
27314;DHT22;14800;48.174;9.798;2023-02-03T02:46:50;6.50;80.80
27314;DHT22;14800;48.174;9.798;2023-02-03T02:49:34;6.50;80.80
27314;DHT22;14800;48.174;9.798;2023-02-03T02:52:04;6.50;80.80
27314;DHT22;14800;48.174;9.798;2023-02-03T02:54:31;6.50;80.80
27314;DHT22;14800;48.174;9.798;2023-02-03T02:57:00;6.50;80.70
27314;DHT22;14800;48.174;9.798;2023-02-03T02:59:27;6.50;80.80
27314;DHT22;14800;48.174;9.798;2023-02-03T03:01:53;6.50;80.90
27314;DHT22;14800;48.174;9.798;2023-02-03T03:04:23;6.50;80.80
27314;DHT22;14800;48.174;9.798;2023-02-03T03:07:00;6.40;80.70
27314;DHT22;14800;48.174;9.798;2023-02-03T03:09:32;6.40;80.70
27314;DHT22;14800;48.174;9.798;2023-02-03T03:14:33;6.40;80.70
27314;DHT22;14800;48.174;9.798;2023-02-03T03:17:05;6.40;80.70
27314;DHT22;14800;48.174;9.798;2023-02-03T03:19:38;6.40;80.60
27314;DHT22;14800;48.174;9.798;2023-02-03T03:22:06;6.40;80.70
27314;DHT22;14800;48.174;9.798;2023-02-03T03:24:40;6.30;80.60
27314;DHT22;14800;48.174;9.798;2023-02-03T03:27:10;6.40;80.70
27314;DHT22;14800;48.174;9.798;2023-02-03T03:29:39;6.30;80.70
27314;DHT22;14800;48.174;9.798;2023-02-03T03:32:06;6.30;80.60
27314;DHT22;14800;48.174;9.798;2023-02-03T03:34:32;6.40;80.70
27314;DHT22;14800;48.174;9.798;2023-02-03T03:39:59;6.30;80.60
27314;DHT22;14800;48.174;9.798;2023-02-03T03:42:39;6.30;80.60
27314;DHT22;14800;48.174;9.798;2023-02-03T03:48:03;6.30;80.60
27314;DHT22;14800;48.174;9.798;2023-02-03T03:50:37;6.30;80.60
27314;DHT22;14800;48.174;9.798;2023-02-03T03:53:08;6.30;80.60
27314;DHT22;14800;48.174;9.798;2023-02-03T03:55:35;6.30;80.60
27314;DHT22;14800;48.174;9.798;2023-02-03T03:58:11;6.30;80.60
27314;DHT22;14800;48.174;9.798;2023-02-03T04:00:39;6.30;80.60
27314;DHT22;14800;48.174;9.798;2023-02-03T04:03:37;6.30;80.60
27314;DHT22;14800;48.174;9.798;2023-02-03T04:06:02;6.30;80.60
27314;DHT22;14800;48.174;9.798;2023-02-03T04:08:28;6.30;80.50
27314;DHT22;14800;48.174;9.798;2023-02-03T04:10:53;6.30;80.60
27314;DHT22;14800;48.174;9.798;2023-02-03T04:13:19;6.30;80.50
27314;DHT22;14800;48.174;9.798;2023-02-03T04:15:45;6.30;80.50
27314;DHT22;14800;48.174;9.798;2023-02-03T04:18:13;6.30;80.50
27314;DHT22;14800;48.174;9.798;2023-02-03T04:20:39;6.30;80.40
27314;DHT22;14800;48.174;9.798;2023-02-03T04:23:05;6.40;80.50
27314;DHT22;14800;48.174;9.798;2023-02-03T04:25:30;6.30;80.40
27314;DHT22;14800;48.174;9.798;2023-02-03T04:27:56;6.40;80.40
27314;DHT22;14800;48.174;9.798;2023-02-03T04:30:21;6.40;80.40
27314;DHT22;14800;48.174;9.798;2023-02-03T04:32:47;6.40;80.40
27314;DHT22;14800;48.174;9.798;2023-02-03T04:35:13;6.40;80.30
27314;DHT22;14800;48.174;9.798;2023-02-03T04:37:39;6.40;80.20
27314;DHT22;14800;48.174;9.798;2023-02-03T04:40:05;6.40;80.20
27314;DHT22;14800;48.174;9.798;2023-02-03T04:42:31;6.50;80.20
27314;DHT22;14800;48.174;9.798;2023-02-03T04:44:57;6.40;80.10
27314;DHT22;14800;48.174;9.798;2023-02-03T04:47:22;6.50;80.00
27314;DHT22;14800;48.174;9.798;2023-02-03T04:49:48;6.40;79.90
27314;DHT22;14800;48.174;9.798;2023-02-03T04:52:14;6.40;80.00
27314;DHT22;14800;48.174;9.798;2023-02-03T04:54:39;6.40;80.00
27314;DHT22;14800;48.174;9.798;2023-02-03T04:57:05;6.40;80.00
27314;DHT22;14800;48.174;9.798;2023-02-03T04:59:31;6.40;80.00
27314;DHT22;14800;48.174;9.798;2023-02-03T05:01:57;6.40;80.10
27314;DHT22;14800;48.174;9.798;2023-02-03T05:04:23;6.40;80.10
27314;DHT22;14800;48.174;9.798;2023-02-03T05:06:48;6.40;80.20
27314;DHT22;14800;48.174;9.798;2023-02-03T05:09:14;6.40;80.30
27314;DHT22;14800;48.174;9.798;2023-02-03T05:11:40;6.40;80.40
27314;DHT22;14800;48.174;9.798;2023-02-03T05:14:06;6.40;80.40
27314;DHT22;14800;48.174;9.798;2023-02-03T05:16:31;6.40;80.60
27314;DHT22;14800;48.174;9.798;2023-02-03T05:18:57;6.40;80.50
27314;DHT22;14800;48.174;9.798;2023-02-03T05:21:23;6.30;80.50
27314;DHT22;14800;48.174;9.798;2023-02-03T05:23:48;6.30;80.60
27314;DHT22;14800;48.174;9.798;2023-02-03T05:26:14;6.30;80.60
27314;DHT22;14800;48.174;9.798;2023-02-03T05:28:39;6.30;80.60
27314;DHT22;14800;48.174;9.798;2023-02-03T05:31:05;6.30;80.60
27314;DHT22;14800;48.174;9.798;2023-02-03T05:33:31;6.30;80.60
27314;DHT22;14800;48.174;9.798;2023-02-03T05:35:56;6.30;80.60
27314;DHT22;14800;48.174;9.798;2023-02-03T05:38:22;6.30;80.70
27314;DHT22;14800;48.174;9.798;2023-02-03T05:40:50;6.20;80.80
27314;DHT22;14800;48.174;9.798;2023-02-03T05:43:34;6.20;80.80
27314;DHT22;14800;48.174;9.798;2023-02-03T05:46:01;6.30;80.90
27314;DHT22;14800;48.174;9.798;2023-02-03T05:48:27;6.20;80.90
27314;DHT22;14800;48.174;9.798;2023-02-03T05:50:53;6.20;80.90
27314;DHT22;14800;48.174;9.798;2023-02-03T05:53:18;6.20;80.90
27314;DHT22;14800;48.174;9.798;2023-02-03T05:55:44;6.20;80.90
27314;DHT22;14800;48.174;9.798;2023-02-03T05:58:09;6.20;80.90
27314;DHT22;14800;48.174;9.798;2023-02-03T06:00:35;6.20;80.90
27314;DHT22;14800;48.174;9.798;2023-02-03T06:03:02;6.10;80.90
27314;DHT22;14800;48.174;9.798;2023-02-03T06:05:28;6.20;80.90
27314;DHT22;14800;48.174;9.798;2023-02-03T06:07:54;6.20;80.90
27314;DHT22;14800;48.174;9.798;2023-02-03T06:10:20;6.20;80.90
27314;DHT22;14800;48.174;9.798;2023-02-03T06:12:46;6.20;80.90
27314;DHT22;14800;48.174;9.798;2023-02-03T06:15:12;6.20;80.80
27314;DHT22;14800;48.174;9.798;2023-02-03T06:17:38;6.20;80.80
27314;DHT22;14800;48.174;9.798;2023-02-03T06:20:09;6.20;80.70
27314;DHT22;14800;48.174;9.798;2023-02-03T06:22:35;6.30;80.80
27314;DHT22;14800;48.174;9.798;2023-02-03T06:25:01;6.20;81.60
27314;DHT22;14800;48.174;9.798;2023-02-03T06:27:26;6.30;80.70
27314;DHT22;14800;48.174;9.798;2023-02-03T06:29:52;6.30;80.70
27314;DHT22;14800;48.174;9.798;2023-02-03T06:32:17;6.20;80.60
27314;DHT22;14800;48.174;9.798;2023-02-03T06:34:43;6.20;80.60
27314;DHT22;14800;48.174;9.798;2023-02-03T06:37:09;6.20;80.50
27314;DHT22;14800;48.174;9.798;2023-02-03T06:39:34;6.20;80.50
27314;DHT22;14800;48.174;9.798;2023-02-03T06:42:00;6.20;80.50
27314;DHT22;14800;48.174;9.798;2023-02-03T06:44:25;6.20;80.50
27314;DHT22;14800;48.174;9.798;2023-02-03T06:46:51;6.20;80.50
27314;DHT22;14800;48.174;9.798;2023-02-03T06:49:17;6.20;80.50
27314;DHT22;14800;48.174;9.798;2023-02-03T06:51:43;6.20;80.50
27314;DHT22;14800;48.174;9.798;2023-02-03T06:54:10;6.20;80.60
27314;DHT22;14800;48.174;9.798;2023-02-03T06:56:36;6.30;80.60
27314;DHT22;14800;48.174;9.798;2023-02-03T06:59:03;6.20;80.50
27314;DHT22;14800;48.174;9.798;2023-02-03T07:01:29;6.30;80.60
27314;DHT22;14800;48.174;9.798;2023-02-03T07:03:55;6.20;80.50
27314;DHT22;14800;48.174;9.798;2023-02-03T07:06:23;6.30;80.60
27314;DHT22;14800;48.174;9.798;2023-02-03T07:08:54;6.20;80.50
27314;DHT22;14800;48.174;9.798;2023-02-03T07:11:19;6.30;80.60
27314;DHT22;14800;48.174;9.798;2023-02-03T07:13:45;6.30;80.50
27314;DHT22;14800;48.174;9.798;2023-02-03T07:16:11;6.30;80.50
27314;DHT22;14800;48.174;9.798;2023-02-03T07:18:36;6.30;80.40
27314;DHT22;14800;48.174;9.798;2023-02-03T07:21:04;6.30;80.50
27314;DHT22;14800;48.174;9.798;2023-02-03T07:23:30;6.30;80.50
27314;DHT22;14800;48.174;9.798;2023-02-03T07:25:58;6.40;80.50
27314;DHT22;14800;48.174;9.798;2023-02-03T07:28:24;6.40;81.30
27314;DHT22;14800;48.174;9.798;2023-02-03T07:30:50;6.40;80.40
27314;DHT22;14800;48.174;9.798;2023-02-03T07:33:15;6.40;80.40
27314;DHT22;14800;48.174;9.798;2023-02-03T07:35:41;6.40;80.40
27314;DHT22;14800;48.174;9.798;2023-02-03T07:38:06;6.40;80.30
27314;DHT22;14800;48.174;9.798;2023-02-03T07:40:32;6.40;80.30
27314;DHT22;14800;48.174;9.798;2023-02-03T07:42:57;6.40;80.30
27314;DHT22;14800;48.174;9.798;2023-02-03T07:45:24;6.40;80.30
27314;DHT22;14800;48.174;9.798;2023-02-03T07:47:50;6.40;80.30
27314;DHT22;14800;48.174;9.798;2023-02-03T07:50:16;6.40;80.20
27314;DHT22;14800;48.174;9.798;2023-02-03T07:52:42;6.40;81.10
27314;DHT22;14800;48.174;9.798;2023-02-03T07:55:07;6.50;80.30
27314;DHT22;14800;48.174;9.798;2023-02-03T07:57:33;6.40;80.20
27314;DHT22;14800;48.174;9.798;2023-02-03T07:59:59;6.40;80.10
27314;DHT22;14800;48.174;9.798;2023-02-03T08:02:24;6.40;80.10
27314;DHT22;14800;48.174;9.798;2023-02-03T08:04:50;6.40;80.10
27314;DHT22;14800;48.174;9.798;2023-02-03T08:07:15;6.40;80.00
27314;DHT22;14800;48.174;9.798;2023-02-03T08:09:41;6.40;80.00
27314;DHT22;14800;48.174;9.798;2023-02-03T08:12:07;6.50;80.10
27314;DHT22;14800;48.174;9.798;2023-02-03T08:14:32;6.50;80.10
27314;DHT22;14800;48.174;9.798;2023-02-03T08:16:58;6.50;80.00
27314;DHT22;14800;48.174;9.798;2023-02-03T08:19:23;6.50;80.00
27314;DHT22;14800;48.174;9.798;2023-02-03T08:21:49;6.50;79.90
27314;DHT22;14800;48.174;9.798;2023-02-03T08:24:14;6.50;79.90
27314;DHT22;14800;48.174;9.798;2023-02-03T08:26:40;6.60;80.40
27314;DHT22;14800;48.174;9.798;2023-02-03T08:29:05;6.60;80.00
27314;DHT22;14800;48.174;9.798;2023-02-03T08:31:32;6.60;79.70
27314;DHT22;14800;48.174;9.798;2023-02-03T08:33:58;6.60;79.70
27314;DHT22;14800;48.174;9.798;2023-02-03T08:36:24;6.60;79.70
27314;DHT22;14800;48.174;9.798;2023-02-03T08:38:49;6.60;79.60
27314;DHT22;14800;48.174;9.798;2023-02-03T08:41:16;6.70;79.80
27314;DHT22;14800;48.174;9.798;2023-02-03T08:43:43;6.70;79.70
27314;DHT22;14800;48.174;9.798;2023-02-03T08:46:10;6.70;79.70
27314;DHT22;14800;48.174;9.798;2023-02-03T08:48:37;6.70;79.50
27314;DHT22;14800;48.174;9.798;2023-02-03T08:51:12;6.70;79.40
27314;DHT22;14800;48.174;9.798;2023-02-03T08:53:38;6.80;79.30
27314;DHT22;14800;48.174;9.798;2023-02-03T08:56:12;6.80;79.30
27314;DHT22;14800;48.174;9.798;2023-02-03T08:58:38;6.80;79.30
27314;DHT22;14800;48.174;9.798;2023-02-03T09:01:09;6.80;79.30
27314;DHT22;14800;48.174;9.798;2023-02-03T09:03:35;6.90;79.20
27314;DHT22;14800;48.174;9.798;2023-02-03T09:06:01;6.90;79.20
27314;DHT22;14800;48.174;9.798;2023-02-03T09:08:27;6.90;79.10
27314;DHT22;14800;48.174;9.798;2023-02-03T09:10:53;6.90;78.90
27314;DHT22;14800;48.174;9.798;2023-02-03T09:13:19;6.90;79.00
27314;DHT22;14800;48.174;9.798;2023-02-03T09:15:45;6.90;78.90
27314;DHT22;14800;48.174;9.798;2023-02-03T09:18:11;7.00;78.90
27314;DHT22;14800;48.174;9.798;2023-02-03T09:20:36;7.00;78.90
27314;DHT22;14800;48.174;9.798;2023-02-03T09:23:02;7.00;78.70
27314;DHT22;14800;48.174;9.798;2023-02-03T09:25:27;7.00;78.70
27314;DHT22;14800;48.174;9.798;2023-02-03T09:27:53;7.00;78.90
27314;DHT22;14800;48.174;9.798;2023-02-03T09:30:19;7.00;78.70
27314;DHT22;14800;48.174;9.798;2023-02-03T09:32:44;7.10;78.70
27314;DHT22;14800;48.174;9.798;2023-02-03T09:35:13;7.10;78.70
27314;DHT22;14800;48.174;9.798;2023-02-03T09:37:39;7.10;78.70
27314;DHT22;14800;48.174;9.798;2023-02-03T09:40:05;7.10;78.60
27314;DHT22;14800;48.174;9.798;2023-02-03T09:42:53;7.10;78.70
27314;DHT22;14800;48.174;9.798;2023-02-03T09:45:23;7.20;78.20
27314;DHT22;14800;48.174;9.798;2023-02-03T09:47:51;7.20;78.60
27314;DHT22;14800;48.174;9.798;2023-02-03T09:50:23;7.30;78.50
27314;DHT22;14800;48.174;9.798;2023-02-03T09:52:49;7.30;78.50
27314;DHT22;14800;48.174;9.798;2023-02-03T09:55:33;7.40;78.60
27314;DHT22;14800;48.174;9.798;2023-02-03T09:58:12;7.40;78.60
27314;DHT22;14800;48.174;9.798;2023-02-03T10:01:07;7.40;77.90
27314;DHT22;14800;48.174;9.798;2023-02-03T10:03:38;7.50;77.70
27314;DHT22;14800;48.174;9.798;2023-02-03T10:14:17;7.60;77.70
27314;DHT22;14800;48.174;9.798;2023-02-03T10:17:22;7.60;77.50
27314;DHT22;14800;48.174;9.798;2023-02-03T10:19:57;7.70;76.80
27314;DHT22;14800;48.174;9.798;2023-02-03T10:22:26;7.70;77.30
27314;DHT22;14800;48.174;9.798;2023-02-03T10:27:45;7.70;77.00
27314;DHT22;14800;48.174;9.798;2023-02-03T10:32:50;7.80;76.80
27314;DHT22;14800;48.174;9.798;2023-02-03T10:35:20;7.80;77.00
27314;DHT22;14800;48.174;9.798;2023-02-03T10:37:50;7.80;76.80
27314;DHT22;14800;48.174;9.798;2023-02-03T10:40:20;7.90;77.10
27314;DHT22;14800;48.174;9.798;2023-02-03T10:42:49;7.90;76.80
27314;DHT22;14800;48.174;9.798;2023-02-03T10:45:36;7.90;76.70
27314;DHT22;14800;48.174;9.798;2023-02-03T10:48:03;8.00;76.80
27314;DHT22;14800;48.174;9.798;2023-02-03T10:50:31;8.00;77.00
27314;DHT22;14800;48.174;9.798;2023-02-03T10:56:09;8.10;76.00
27314;DHT22;14800;48.174;9.798;2023-02-03T10:58:37;8.20;76.30
27314;DHT22;14800;48.174;9.798;2023-02-03T11:01:09;8.20;76.10
27314;DHT22;14800;48.174;9.798;2023-02-03T11:03:35;8.20;76.00
27314;DHT22;14800;48.174;9.798;2023-02-03T11:06:11;8.20;76.10
27314;DHT22;14800;48.174;9.798;2023-02-03T11:08:38;8.20;75.40
27314;DHT22;14800;48.174;9.798;2023-02-03T11:11:07;8.20;75.10
27314;DHT22;14800;48.174;9.798;2023-02-03T11:13:33;8.30;75.40
27314;DHT22;14800;48.174;9.798;2023-02-03T11:18:26;8.30;76.00
27314;DHT22;14800;48.174;9.798;2023-02-03T11:20:56;8.30;76.00
27314;DHT22;14800;48.174;9.798;2023-02-03T11:23:22;8.30;76.10
27314;DHT22;14800;48.174;9.798;2023-02-03T11:25:48;8.30;76.10
27314;DHT22;14800;48.174;9.798;2023-02-03T11:28:14;8.30;76.30
27314;DHT22;14800;48.174;9.798;2023-02-03T11:30:41;8.30;76.50
27314;DHT22;14800;48.174;9.798;2023-02-03T11:33:17;8.30;76.50
27314;DHT22;14800;48.174;9.798;2023-02-03T11:35:57;8.30;76.60
27314;DHT22;14800;48.174;9.798;2023-02-03T11:38:33;8.30;76.50
27314;DHT22;14800;48.174;9.798;2023-02-03T11:41:04;8.30;76.50
27314;DHT22;14800;48.174;9.798;2023-02-03T11:43:30;8.30;76.80
27314;DHT22;14800;48.174;9.798;2023-02-03T11:46:02;8.30;76.80
27314;DHT22;14800;48.174;9.798;2023-02-03T11:48:31;8.30;76.70
27314;DHT22;14800;48.174;9.798;2023-02-03T12:13:18;8.60;76.30
27314;DHT22;14800;48.174;9.798;2023-02-03T12:16:03;8.60;75.70
27314;DHT22;14800;48.174;9.798;2023-02-03T12:18:39;8.60;75.40
27314;DHT22;14800;48.174;9.798;2023-02-03T12:21:29;8.70;75.70
27314;DHT22;14800;48.174;9.798;2023-02-03T12:29:12;8.70;75.30
27314;DHT22;14800;48.174;9.798;2023-02-03T12:34:49;8.70;74.40
27314;DHT22;14800;48.174;9.798;2023-02-03T12:37:22;8.70;74.70
27314;DHT22;14800;48.174;9.798;2023-02-03T12:39:54;8.70;74.60
27314;DHT22;14800;48.174;9.798;2023-02-03T12:42:31;8.70;74.60
27314;DHT22;14800;48.174;9.798;2023-02-03T12:47:44;8.70;74.40
27314;DHT22;14800;48.174;9.798;2023-02-03T12:50:21;8.70;74.30
27314;DHT22;14800;48.174;9.798;2023-02-03T12:52:59;8.70;74.00
27314;DHT22;14800;48.174;9.798;2023-02-03T12:55:41;8.70;73.90
27314;DHT22;14800;48.174;9.798;2023-02-03T12:58:38;8.70;73.20
27314;DHT22;14800;48.174;9.798;2023-02-03T13:01:09;8.70;73.40
27314;DHT22;14800;48.174;9.798;2023-02-03T13:04:05;8.60;73.70
27314;DHT22;14800;48.174;9.798;2023-02-03T13:09:59;8.70;73.40
27314;DHT22;14800;48.174;9.798;2023-02-03T13:12:40;8.70;73.50
27314;DHT22;14800;48.174;9.798;2023-02-03T13:15:29;8.70;73.60
27314;DHT22;14800;48.174;9.798;2023-02-03T13:20:44;8.70;73.00
27314;DHT22;14800;48.174;9.798;2023-02-03T13:23:12;8.70;73.60
27314;DHT22;14800;48.174;9.798;2023-02-03T13:42:46;8.90;72.50
27314;DHT22;14800;48.174;9.798;2023-02-03T13:47:46;8.90;72.80
27314;DHT22;14800;48.174;9.798;2023-02-03T13:50:27;8.90;72.40
27314;DHT22;14800;48.174;9.798;2023-02-03T13:53:05;8.90;72.00
27314;DHT22;14800;48.174;9.798;2023-02-03T13:55:41;8.90;71.70
27314;DHT22;14800;48.174;9.798;2023-02-03T13:58:19;8.90;71.20
27314;DHT22;14800;48.174;9.798;2023-02-03T14:05:51;8.90;71.00
27314;DHT22;14800;48.174;9.798;2023-02-03T14:08:46;8.90;70.80
27314;DHT22;14800;48.174;9.798;2023-02-03T14:16:41;8.90;70.60
27314;DHT22;14800;48.174;9.798;2023-02-03T14:24:21;8.90;70.00
27314;DHT22;14800;48.174;9.798;2023-02-03T14:26:52;8.90;70.00
27314;DHT22;14800;48.174;9.798;2023-02-03T14:32:20;8.90;68.20
27314;DHT22;14800;48.174;9.798;2023-02-03T14:34:48;8.90;68.40
27314;DHT22;14800;48.174;9.798;2023-02-03T14:37:30;8.90;69.40
27314;DHT22;14800;48.174;9.798;2023-02-03T14:42:46;8.90;69.20
27314;DHT22;14800;48.174;9.798;2023-02-03T14:45:32;8.90;68.90
27314;DHT22;14800;48.174;9.798;2023-02-03T14:58:56;8.80;69.00
27314;DHT22;14800;48.174;9.798;2023-02-03T15:04:20;8.80;69.00
27314;DHT22;14800;48.174;9.798;2023-02-03T15:06:49;8.80;68.60
27314;DHT22;14800;48.174;9.798;2023-02-03T15:09:37;8.80;69.20
27314;DHT22;14800;48.174;9.798;2023-02-03T15:12:25;8.80;69.20
27314;DHT22;14800;48.174;9.798;2023-02-03T15:14:51;8.70;68.80
27314;DHT22;14800;48.174;9.798;2023-02-03T15:17:27;8.70;69.00
27314;DHT22;14800;48.174;9.798;2023-02-03T15:19:54;8.70;69.40
27314;DHT22;14800;48.174;9.798;2023-02-03T15:22:21;8.70;69.00
27314;DHT22;14800;48.174;9.798;2023-02-03T15:24:48;8.70;69.40
27314;DHT22;14800;48.174;9.798;2023-02-03T15:27:23;8.70;69.70
27314;DHT22;14800;48.174;9.798;2023-02-03T15:29:49;8.70;69.40
27314;DHT22;14800;48.174;9.798;2023-02-03T15:32:23;8.70;69.30
27314;DHT22;14800;48.174;9.798;2023-02-03T15:34:51;8.70;69.20
27314;DHT22;14800;48.174;9.798;2023-02-03T15:37:34;8.70;69.30
27314;DHT22;14800;48.174;9.798;2023-02-03T15:40:08;8.70;68.80
27314;DHT22;14800;48.174;9.798;2023-02-03T15:45:20;8.60;69.10
27314;DHT22;14800;48.174;9.798;2023-02-03T15:50:32;8.70;69.40
27314;DHT22;14800;48.174;9.798;2023-02-03T15:53:07;8.70;69.50
27314;DHT22;14800;48.174;9.798;2023-02-03T15:55:41;8.70;69.90
27314;DHT22;14800;48.174;9.798;2023-02-03T15:58:43;8.60;69.70
27314;DHT22;14800;48.174;9.798;2023-02-03T16:01:08;8.70;69.80
27314;DHT22;14800;48.174;9.798;2023-02-03T16:03:51;8.70;69.60
27314;DHT22;14800;48.174;9.798;2023-02-03T16:08:54;8.60;69.70
27314;DHT22;14800;48.174;9.798;2023-02-03T16:13:46;8.60;70.00
27314;DHT22;14800;48.174;9.798;2023-02-03T16:16:17;8.60;70.10
27314;DHT22;14800;48.174;9.798;2023-02-03T16:18:56;8.60;70.30
27314;DHT22;14800;48.174;9.798;2023-02-03T16:21:34;8.60;70.10
27314;DHT22;14800;48.174;9.798;2023-02-03T16:24:04;8.70;70.40
27314;DHT22;14800;48.174;9.798;2023-02-03T16:26:31;8.60;70.40
27314;DHT22;14800;48.174;9.798;2023-02-03T16:31:51;8.60;70.60
27314;DHT22;14800;48.174;9.798;2023-02-03T16:34:35;8.60;70.70
27314;DHT22;14800;48.174;9.798;2023-02-03T16:40:13;8.50;70.80
27314;DHT22;14800;48.174;9.798;2023-02-03T16:43:00;8.50;71.10
27314;DHT22;14800;48.174;9.798;2023-02-03T16:45:46;8.50;71.10
27314;DHT22;14800;48.174;9.798;2023-02-03T16:48:34;8.50;71.30
27314;DHT22;14800;48.174;9.798;2023-02-03T16:51:18;8.50;71.40
27314;DHT22;14800;48.174;9.798;2023-02-03T16:53:45;8.40;71.40
27314;DHT22;14800;48.174;9.798;2023-02-03T16:56:12;8.40;71.60
27314;DHT22;14800;48.174;9.798;2023-02-03T16:58:38;8.50;71.90
27314;DHT22;14800;48.174;9.798;2023-02-03T17:01:05;8.40;71.90
27314;DHT22;14800;48.174;9.798;2023-02-03T17:03:33;8.40;72.00
27314;DHT22;14800;48.174;9.798;2023-02-03T17:06:09;8.40;72.10
27314;DHT22;14800;48.174;9.798;2023-02-03T17:08:36;8.40;72.10
27314;DHT22;14800;48.174;9.798;2023-02-03T17:11:11;8.30;72.10
27314;DHT22;14800;48.174;9.798;2023-02-03T17:13:39;8.30;72.30
27314;DHT22;14800;48.174;9.798;2023-02-03T17:16:09;8.30;72.30
27314;DHT22;14800;48.174;9.798;2023-02-03T17:18:35;8.30;72.30
27314;DHT22;14800;48.174;9.798;2023-02-03T17:21:05;8.30;72.50
27314;DHT22;14800;48.174;9.798;2023-02-03T17:23:31;8.30;72.50
27314;DHT22;14800;48.174;9.798;2023-02-03T17:25:57;8.30;72.50
27314;DHT22;14800;48.174;9.798;2023-02-03T17:28:22;8.30;72.60
27314;DHT22;14800;48.174;9.798;2023-02-03T17:30:59;8.30;72.60
27314;DHT22;14800;48.174;9.798;2023-02-03T17:33:26;8.30;72.50
27314;DHT22;14800;48.174;9.798;2023-02-03T17:36:21;8.30;72.60
27314;DHT22;14800;48.174;9.798;2023-02-03T17:38:48;8.30;72.50
27314;DHT22;14800;48.174;9.798;2023-02-03T17:41:16;8.30;72.70
27314;DHT22;14800;48.174;9.798;2023-02-03T17:43:43;8.20;72.80
27314;DHT22;14800;48.174;9.798;2023-02-03T17:46:11;8.20;72.90
27314;DHT22;14800;48.174;9.798;2023-02-03T17:48:37;8.20;72.80
27314;DHT22;14800;48.174;9.798;2023-02-03T17:51:14;8.20;72.90
27314;DHT22;14800;48.174;9.798;2023-02-03T17:53:40;8.20;72.90
27314;DHT22;14800;48.174;9.798;2023-02-03T17:56:11;8.20;73.00
27314;DHT22;14800;48.174;9.798;2023-02-03T17:58:39;8.20;73.00
27314;DHT22;14800;48.174;9.798;2023-02-03T18:03:44;8.20;73.20
27314;DHT22;14800;48.174;9.798;2023-02-03T18:06:10;8.20;74.10
27314;DHT22;14800;48.174;9.798;2023-02-03T18:08:37;8.20;73.60
27314;DHT22;14800;48.174;9.798;2023-02-03T18:11:02;8.20;73.90
27314;DHT22;14800;48.174;9.798;2023-02-03T18:13:29;8.10;74.30
27314;DHT22;14800;48.174;9.798;2023-02-03T18:15:57;8.10;74.70
27314;DHT22;14800;48.174;9.798;2023-02-03T18:18:23;8.10;75.30
27314;DHT22;14800;48.174;9.798;2023-02-03T18:20:50;8.00;75.50
27314;DHT22;14800;48.174;9.798;2023-02-03T18:23:16;8.00;75.80
27314;DHT22;14800;48.174;9.798;2023-02-03T18:25:43;8.00;76.10
27314;DHT22;14800;48.174;9.798;2023-02-03T18:28:09;7.90;76.10
27314;DHT22;14800;48.174;9.798;2023-02-03T18:30:34;7.90;77.20
27314;DHT22;14800;48.174;9.798;2023-02-03T18:33:00;7.90;76.50
27314;DHT22;14800;48.174;9.798;2023-02-03T18:35:26;7.90;76.60
27314;DHT22;14800;48.174;9.798;2023-02-03T18:37:52;7.90;77.00